createdAt,value
2019-05-19T00:00:13.349Z,0.0000
2019-05-19T00:01:16.286Z,0.0000
2019-05-19T00:02:19.357Z,0.0000
2019-05-19T00:03:22.264Z,0.0000
2019-05-19T00:04:25.346Z,0.0000
2019-05-19T00:05:28.301Z,0.0000
2019-05-19T00:06:31.299Z,0.0000
2019-05-19T00:07:34.359Z,0.0000
2019-05-19T00:08:37.330Z,0.0000
2019-05-19T00:09:40.385Z,0.0000
2019-05-19T00:10:43.301Z,0.0000
2019-05-19T00:11:46.316Z,0.0000
2019-05-19T00:12:49.304Z,0.0000
2019-05-19T00:13:52.320Z,0.0000
2019-05-19T00:14:55.362Z,0.0000
2019-05-19T00:15:58.262Z,0.0000
2019-05-19T00:17:01.326Z,0.0000
2019-05-19T00:18:04.281Z,0.0000
2019-05-19T00:19:07.302Z,0.0000
2019-05-19T00:20:10.293Z,0.0000
2019-05-19T00:21:13.332Z,0.0000
2019-05-19T00:22:16.306Z,0.0000
2019-05-19T00:23:19.298Z,0.0000
2019-05-19T00:24:22.325Z,0.0000
2019-05-19T00:25:25.303Z,0.0000
2019-05-19T00:26:28.310Z,0.0000
2019-05-19T00:27:31.287Z,0.0000
2019-05-19T00:28:34.297Z,0.0000
2019-05-19T00:29:37.339Z,0.0000
2019-05-19T00:30:40.325Z,0.0000
2019-05-19T00:31:43.337Z,0.0000
2019-05-19T00:32:45.283Z,0.0000
2019-05-19T00:33:48.324Z,0.0000
2019-05-19T00:34:51.303Z,0.0000
2019-05-19T00:35:54.324Z,0.0000
2019-05-19T00:36:56.296Z,0.0000
2019-05-19T00:37:59.327Z,0.0000
2019-05-19T00:39:02.288Z,0.0000
2019-05-19T00:40:05.332Z,0.0000
2019-05-19T00:41:08.282Z,0.0000
2019-05-19T00:42:11.292Z,0.0000
2019-05-19T00:43:14.291Z,0.0000
2019-05-19T00:44:17.287Z,0.0000
2019-05-19T00:45:20.356Z,0.0000
2019-05-19T00:46:23.304Z,0.0000
2019-05-19T00:47:26.297Z,0.0000
2019-05-19T00:48:29.274Z,0.0000
2019-05-19T00:49:40.874Z,0.0000
2019-05-19T00:50:40.296Z,0.0000
2019-05-19T00:51:43.261Z,0.0000
2019-05-19T00:52:46.327Z,0.0000
2019-05-19T00:53:49.285Z,0.0000
2019-05-19T00:54:52.330Z,0.0000
2019-05-19T00:55:54.309Z,0.0000
2019-05-19T00:56:57.293Z,0.0000
2019-05-19T00:58:00.293Z,0.0000
2019-05-19T00:59:03.352Z,0.0000
2019-05-19T01:00:06.315Z,0.0000
2019-05-19T01:01:10.400Z,0.0000
2019-05-19T01:02:13.276Z,0.0000
2019-05-19T01:03:17.311Z,0.0000
2019-05-19T01:04:22.335Z,0.0000
2019-05-19T01:05:27.298Z,0.0000
2019-05-19T01:06:30.338Z,0.0000
2019-05-19T01:07:33.288Z,0.0000
2019-05-19T01:08:36.312Z,0.0000
2019-05-19T01:09:39.268Z,0.0000
2019-05-19T01:10:42.348Z,0.0000
2019-05-19T01:11:45.324Z,0.0000
2019-05-19T01:12:48.282Z,0.0000
2019-05-19T01:13:51.305Z,0.0000
2019-05-19T01:14:55.323Z,0.0000
2019-05-19T01:15:58.353Z,0.0000
2019-05-19T01:17:01.385Z,0.0000
2019-05-19T01:18:04.353Z,0.0000
2019-05-19T01:19:07.258Z,0.0000
2019-05-19T01:20:10.323Z,0.0000
2019-05-19T01:21:13.292Z,0.0000
2019-05-19T01:22:16.314Z,0.0000
2019-05-19T01:23:19.314Z,0.0000
2019-05-19T01:24:22.259Z,0.0000
2019-05-19T01:25:25.308Z,0.0000
2019-05-19T01:26:27.314Z,0.0000
2019-05-19T01:27:30.323Z,0.0000
2019-05-19T01:28:33.303Z,0.0000
2019-05-19T01:29:36.310Z,0.0000
2019-05-19T01:30:39.329Z,0.0000
2019-05-19T01:31:42.275Z,0.0000
2019-05-19T01:32:45.332Z,0.0000
2019-05-19T01:33:50.263Z,0.0000
2019-05-19T01:34:53.294Z,0.0000
2019-05-19T01:35:56.330Z,0.0000
2019-05-19T01:37:01.346Z,0.0000
2019-05-19T01:38:04.286Z,0.0000
2019-05-19T01:39:07.270Z,0.0000
2019-05-19T01:40:10.318Z,0.0000
2019-05-19T01:41:13.326Z,0.0000
2019-05-19T01:42:16.346Z,0.0000
2019-05-19T01:43:19.319Z,0.0000
2019-05-19T01:44:22.378Z,0.0000
2019-05-19T01:45:25.260Z,0.0000
2019-05-19T01:46:28.348Z,0.0000
2019-05-19T01:47:31.320Z,0.0000
2019-05-19T01:48:34.279Z,0.0000
2019-05-19T01:49:36.305Z,0.0000
2019-05-19T01:50:39.259Z,0.0000
2019-05-19T01:51:44.356Z,0.0000
2019-05-19T01:52:49.339Z,0.0000
2019-05-19T01:53:52.285Z,0.0000
2019-05-19T01:54:55.286Z,0.0000
2019-05-19T01:55:58.278Z,0.0000
2019-05-19T01:57:01.302Z,0.0000
2019-05-19T01:58:04.301Z,0.0000
2019-05-19T01:59:07.313Z,0.0000
2019-05-19T02:00:10.283Z,0.0000
2019-05-19T02:01:13.330Z,0.0000
2019-05-19T02:02:16.326Z,0.0000
2019-05-19T02:03:19.300Z,0.0000
2019-05-19T02:04:22.325Z,0.0000
2019-05-19T02:05:24.316Z,0.0000
2019-05-19T02:06:27.326Z,0.0000
2019-05-19T02:07:30.317Z,0.0000
2019-05-19T02:08:33.306Z,0.0000
2019-05-19T02:09:36.325Z,0.0000
2019-05-19T02:10:38.287Z,0.0000
2019-05-19T02:11:41.333Z,0.0000
2019-05-19T02:12:44.278Z,0.0000
2019-05-19T02:13:47.305Z,0.0000
2019-05-19T02:14:50.291Z,0.0000
2019-05-19T02:15:53.319Z,0.0000
2019-05-19T02:16:56.301Z,0.0000
2019-05-19T02:17:59.291Z,0.0000
2019-05-19T02:19:02.427Z,0.0000
2019-05-19T02:20:05.306Z,0.0000
2019-05-19T02:21:08.271Z,0.0000
2019-05-19T02:22:11.278Z,0.0000
2019-05-19T02:23:14.291Z,0.0000
2019-05-19T02:24:17.311Z,0.0000
2019-05-19T02:25:20.332Z,0.0000
2019-05-19T02:26:25.325Z,0.0000
2019-05-19T02:27:28.275Z,0.0000
2019-05-19T02:28:31.306Z,0.0000
2019-05-19T02:29:34.311Z,0.0000
2019-05-19T02:30:37.301Z,0.0000
2019-05-19T02:31:40.284Z,0.0000
2019-05-19T02:32:43.306Z,0.0000
2019-05-19T02:33:46.312Z,0.0000
2019-05-19T02:34:49.339Z,0.0000
2019-05-19T02:35:52.281Z,0.0000
2019-05-19T02:36:55.294Z,0.0000
2019-05-19T02:38:00.335Z,0.0000
2019-05-19T02:39:03.296Z,0.0000
2019-05-19T02:40:06.351Z,0.0000
2019-05-19T02:41:09.295Z,0.0000
2019-05-19T02:42:12.324Z,0.0000
2019-05-19T02:43:15.300Z,0.0000
2019-05-19T02:44:18.282Z,0.0000
2019-05-19T02:45:21.314Z,0.0000
2019-05-19T02:46:24.317Z,0.0000
2019-05-19T02:47:27.283Z,0.0000
2019-05-19T02:48:30.297Z,0.0000
2019-05-19T02:49:33.298Z,0.0000
2019-05-19T02:50:50.848Z,0.0000
2019-05-19T02:51:44.328Z,0.0000
2019-05-19T02:52:46.272Z,0.0000
2019-05-19T02:53:49.297Z,0.0000
2019-05-19T02:54:52.318Z,0.0000
2019-05-19T02:55:55.297Z,0.0000
2019-05-19T02:56:58.318Z,0.0000
2019-05-19T02:58:01.303Z,0.0000
2019-05-19T02:59:04.303Z,0.0000
2019-05-19T03:00:07.270Z,0.0000
2019-05-19T03:01:10.347Z,0.0000
2019-05-19T03:02:13.282Z,0.0000
2019-05-19T03:03:16.285Z,0.0000
2019-05-19T03:04:19.328Z,0.0000
2019-05-19T03:05:22.298Z,0.0000
2019-05-19T03:06:25.353Z,0.0000
2019-05-19T03:07:28.298Z,0.0000
2019-05-19T03:08:31.339Z,0.0000
2019-05-19T03:09:34.303Z,1.0000
2019-05-19T03:10:36.314Z,1.0000
2019-05-19T03:11:39.336Z,1.0000
2019-05-19T03:12:42.271Z,1.0000
2019-05-19T03:13:45.317Z,1.0000
2019-05-19T03:14:48.304Z,2.0000
2019-05-19T03:15:51.323Z,2.0000
2019-05-19T03:16:54.311Z,2.0000
2019-05-19T03:17:56.292Z,2.0000
2019-05-19T03:18:59.287Z,2.0000
2019-05-19T03:20:02.412Z,3.0000
2019-05-19T03:21:11.193Z,3.0000
2019-05-19T03:22:13.358Z,4.0000
2019-05-19T03:23:16.284Z,5.0000
2019-05-19T03:24:19.275Z,6.0000
2019-05-19T03:25:22.309Z,7.0000
2019-05-19T03:26:25.268Z,9.0000
2019-05-19T03:27:28.362Z,12.0000
2019-05-19T03:28:31.303Z,15.0000
2019-05-19T03:29:34.323Z,18.0000
2019-05-19T03:30:37.328Z,21.0000
2019-05-19T03:31:40.350Z,24.0000
2019-05-19T03:32:43.352Z,28.0000
2019-05-19T03:33:46.310Z,34.0000
2019-05-19T03:34:50.369Z,40.0000
2019-05-19T03:35:53.282Z,47.0000
2019-05-19T03:36:56.312Z,56.0000
2019-05-19T03:37:59.299Z,66.0000
2019-05-19T03:39:01.309Z,75.0000
2019-05-19T03:40:04.292Z,86.0000
2019-05-19T03:41:07.339Z,98.0000
2019-05-19T03:42:10.726Z,111.0000
2019-05-19T03:43:14.301Z,123.0000
2019-05-19T03:44:17.318Z,132.0000
2019-05-19T03:45:20.291Z,139.0000
2019-05-19T03:46:23.326Z,146.0000
2019-05-19T03:47:26.292Z,154.0000
2019-05-19T03:48:29.338Z,166.0000
2019-05-19T03:49:31.260Z,179.0000
2019-05-19T03:50:34.292Z,190.0000
2019-05-19T03:51:37.308Z,206.0000
2019-05-19T03:52:41.372Z,221.0000
2019-05-19T03:53:44.345Z,236.0000
2019-05-19T03:54:47.277Z,252.0000
2019-05-19T03:55:50.302Z,269.0000
2019-05-19T03:56:53.295Z,286.0000
2019-05-19T03:57:56.308Z,301.0000
2019-05-19T03:58:59.314Z,318.0000
2019-05-19T04:00:02.309Z,334.0000
2019-05-19T04:01:05.314Z,347.0000
2019-05-19T04:02:08.315Z,367.0000
2019-05-19T04:03:11.307Z,390.0000
2019-05-19T04:04:14.342Z,415.0000
2019-05-19T04:05:17.326Z,436.0000
2019-05-19T04:06:20.289Z,461.0000
2019-05-19T04:07:23.289Z,483.0000
2019-05-19T04:08:26.309Z,508.0000
2019-05-19T04:09:29.309Z,535.0000
2019-05-19T04:10:32.309Z,568.0000
2019-05-19T04:11:35.313Z,604.0000
2019-05-19T04:12:38.304Z,644.0000
2019-05-19T04:13:40.318Z,684.0000
2019-05-19T04:14:43.367Z,718.0000
2019-05-19T04:15:46.262Z,732.0000
2019-05-19T04:16:49.274Z,754.0000
2019-05-19T04:17:52.320Z,756.0000
2019-05-19T04:18:55.290Z,761.0000
2019-05-19T04:19:57.314Z,762.0000
2019-05-19T04:21:00.308Z,772.0000
2019-05-19T04:22:03.306Z,837.0000
2019-05-19T04:23:06.317Z,864.0000
2019-05-19T04:24:09.279Z,896.0000
2019-05-19T04:25:12.331Z,936.0000
2019-05-19T04:26:15.309Z,1004.0000
2019-05-19T04:27:18.291Z,1065.0000
2019-05-19T04:28:21.299Z,1120.0000
2019-05-19T04:29:24.304Z,1160.0000
2019-05-19T04:30:27.327Z,1194.0000
2019-05-19T04:31:30.310Z,1236.0000
2019-05-19T04:32:33.292Z,1273.0000
2019-05-19T04:33:36.327Z,1325.0000
2019-05-19T04:34:38.413Z,1355.0000
2019-05-19T04:35:41.307Z,1348.0000
2019-05-19T04:36:44.291Z,1386.0000
2019-05-19T04:37:47.304Z,1417.0000
2019-05-19T04:38:50.342Z,1483.0000
2019-05-19T04:39:53.301Z,1545.0000
2019-05-19T04:40:56.298Z,1596.0000
2019-05-19T04:41:59.270Z,1611.0000
2019-05-19T04:43:02.282Z,1612.0000
2019-05-19T04:44:05.341Z,1573.0000
2019-05-19T04:45:10.338Z,1497.0000
2019-05-19T04:46:13.308Z,1568.0000
2019-05-19T04:47:16.297Z,1692.0000
2019-05-19T04:48:19.333Z,1770.0000
2019-05-19T04:49:22.312Z,1828.0000
2019-05-19T04:50:25.273Z,1894.0000
2019-05-19T04:51:28.307Z,1936.0000
2019-05-19T04:52:31.293Z,1860.0000
2019-05-19T04:53:34.327Z,1930.0000
2019-05-19T04:54:37.338Z,2257.0000
2019-05-19T04:55:40.313Z,2535.0000
2019-05-19T04:56:43.297Z,2727.0000
2019-05-19T04:57:46.319Z,2821.0000
2019-05-19T04:58:49.308Z,2781.0000
2019-05-19T04:59:52.264Z,2674.0000
2019-05-19T05:00:55.333Z,2570.0000
2019-05-19T05:01:58.295Z,2518.0000
2019-05-19T05:03:01.292Z,2454.0000
2019-05-19T05:04:04.331Z,2406.0000
2019-05-19T05:05:07.335Z,2387.0000
2019-05-19T05:06:10.283Z,2351.0000
2019-05-19T05:07:12.308Z,2358.0000
2019-05-19T05:08:28.966Z,2555.0000
2019-05-19T05:09:23.315Z,2733.0000
2019-05-19T05:10:26.307Z,2732.0000
2019-05-19T05:11:28.303Z,2489.0000
2019-05-19T05:12:31.300Z,2225.0000
2019-05-19T05:13:34.310Z,2212.0000
2019-05-19T05:14:37.308Z,2117.0000
2019-05-19T05:15:39.316Z,2276.0000
2019-05-19T05:16:42.278Z,2725.0000
2019-05-19T05:17:45.299Z,3236.0000
2019-05-19T05:18:48.337Z,3256.0000
2019-05-19T05:19:51.313Z,2789.0000
2019-05-19T05:20:54.284Z,3007.0000
2019-05-19T05:21:57.267Z,3497.0000
2019-05-19T05:23:00.286Z,3147.0000
2019-05-19T05:24:03.335Z,3430.0000
2019-05-19T05:25:06.276Z,3869.0000
2019-05-19T05:26:09.333Z,4074.0000
2019-05-19T05:27:12.278Z,4030.0000
2019-05-19T05:28:15.278Z,3963.0000
2019-05-19T05:29:18.352Z,4015.0000
2019-05-19T05:30:21.275Z,3956.0000
2019-05-19T05:31:24.298Z,3835.0000
2019-05-19T05:32:27.288Z,3770.0000
2019-05-19T05:33:30.267Z,3651.0000
2019-05-19T05:34:33.334Z,3644.0000
2019-05-19T05:35:36.301Z,4077.0000
2019-05-19T05:36:39.266Z,4578.0000
2019-05-19T05:37:42.282Z,4740.0000
2019-05-19T05:38:45.304Z,4725.0000
2019-05-19T05:39:48.322Z,4573.0000
2019-05-19T05:40:51.319Z,4636.0000
2019-05-19T05:41:54.276Z,4855.0000
2019-05-19T05:42:57.311Z,4606.0000
2019-05-19T05:44:00.282Z,4404.0000
2019-05-19T05:45:03.320Z,4602.0000
2019-05-19T05:46:06.315Z,4423.0000
2019-05-19T05:47:09.297Z,4184.0000
2019-05-19T05:48:12.300Z,4183.0000
2019-05-19T05:49:14.279Z,4291.0000
2019-05-19T05:50:16.508Z,4764.0000
2019-05-19T05:51:19.275Z,5072.0000
2019-05-19T05:52:37.259Z,4884.0000
2019-05-19T05:53:30.292Z,4236.0000
2019-05-19T05:54:33.251Z,3675.0000
2019-05-19T05:55:36.380Z,3511.0000
2019-05-19T05:56:40.284Z,3762.0000
2019-05-19T05:57:43.309Z,4148.0000
2019-05-19T05:58:46.293Z,4682.0000
2019-05-19T05:59:49.303Z,4648.0000
2019-05-19T06:00:52.303Z,4853.0000
2019-05-19T06:01:55.322Z,5379.0000
2019-05-19T06:02:58.312Z,6185.0000
2019-05-19T06:04:01.288Z,6365.0000
2019-05-19T06:05:03.314Z,6209.0000
2019-05-19T06:06:06.309Z,6630.0000
2019-05-19T06:07:09.312Z,6993.0000
2019-05-19T06:08:12.276Z,7229.0000
2019-05-19T06:09:15.303Z,7445.0000
2019-05-19T06:10:18.282Z,8148.0000
2019-05-19T06:11:21.324Z,8509.0000
2019-05-19T06:12:24.300Z,8636.0000
2019-05-19T06:13:27.293Z,8850.0000
2019-05-19T06:14:30.301Z,8731.0000
2019-05-19T06:15:33.313Z,8449.0000
2019-05-19T06:16:36.342Z,8369.0000
2019-05-19T06:17:38.299Z,8581.0000
2019-05-19T06:18:41.314Z,8866.0000
2019-05-19T06:19:44.292Z,8824.0000
2019-05-19T06:20:47.273Z,8325.0000
2019-05-19T06:21:50.334Z,7702.0000
2019-05-19T06:22:56.957Z,7588.0000
2019-05-19T06:24:00.319Z,8255.0000
2019-05-19T06:25:03.316Z,9105.0000
2019-05-19T06:26:06.313Z,9571.0000
2019-05-19T06:27:09.314Z,9564.0000
2019-05-19T06:28:12.366Z,9247.0000
2019-05-19T06:29:15.272Z,9373.0000
2019-05-19T06:30:18.269Z,10139.0000
2019-05-19T06:31:21.313Z,11211.0000
2019-05-19T06:32:24.323Z,11827.0000
2019-05-19T06:33:27.299Z,12104.0000
2019-05-19T06:34:30.352Z,12623.0000
2019-05-19T06:35:33.311Z,13249.0000
2019-05-19T06:36:36.271Z,13162.0000
2019-05-19T06:37:39.347Z,12742.0000
2019-05-19T06:38:42.301Z,12933.0000
2019-05-19T06:39:44.325Z,13530.0000
2019-05-19T06:40:46.511Z,13871.0000
2019-05-19T06:41:49.281Z,14107.0000
2019-05-19T06:42:52.325Z,14163.0000
2019-05-19T06:43:55.273Z,13978.0000
2019-05-19T06:44:58.342Z,13473.0000
2019-05-19T06:46:01.309Z,12578.0000
2019-05-19T06:47:04.296Z,11574.0000
2019-05-19T06:48:07.367Z,10679.0000
2019-05-19T06:49:10.328Z,10276.0000
2019-05-19T06:50:12.288Z,10288.0000
2019-05-19T06:51:15.299Z,10467.0000
2019-05-19T06:52:18.300Z,10820.0000
2019-05-19T06:53:21.302Z,10725.0000
2019-05-19T06:54:24.321Z,10500.0000
2019-05-19T06:55:27.326Z,10322.0000
2019-05-19T06:56:30.308Z,10252.0000
2019-05-19T06:57:33.270Z,10358.0000
2019-05-19T06:58:36.334Z,10740.0000
2019-05-19T06:59:39.315Z,11429.0000
2019-05-19T07:00:42.301Z,12434.0000
2019-05-19T07:01:45.331Z,13314.0000
2019-05-19T07:02:48.272Z,14252.0000
2019-05-19T07:03:51.342Z,15038.0000
2019-05-19T07:04:54.289Z,15677.0000
2019-05-19T07:05:57.316Z,16220.0000
2019-05-19T07:07:00.319Z,16323.0000
2019-05-19T07:08:03.298Z,16403.0000
2019-05-19T07:09:06.339Z,16534.0000
2019-05-19T07:10:09.288Z,16680.0000
2019-05-19T07:11:12.333Z,16597.0000
2019-05-19T07:12:15.286Z,16483.0000
2019-05-19T07:13:18.311Z,17080.0000
2019-05-19T07:14:20.311Z,17862.0000
2019-05-19T07:15:23.307Z,18624.0000
2019-05-19T07:16:26.302Z,19240.0000
2019-05-19T07:17:29.309Z,19768.0000
2019-05-19T07:18:32.291Z,20160.0000
2019-05-19T07:19:35.326Z,20496.0000
2019-05-19T07:20:38.345Z,20736.0000
2019-05-19T07:21:41.274Z,20584.0000
2019-05-19T07:22:44.297Z,20392.0000
2019-05-19T07:23:47.298Z,21272.0000
2019-05-19T07:24:50.352Z,20936.0000
2019-05-19T07:25:53.291Z,21008.0000
2019-05-19T07:26:56.290Z,20520.0000
2019-05-19T07:27:59.296Z,19592.0000
2019-05-19T07:29:02.303Z,19424.0000
2019-05-19T07:30:05.364Z,20536.0000
2019-05-19T07:31:08.265Z,21304.0000
2019-05-19T07:32:11.314Z,21688.0000
2019-05-19T07:33:14.290Z,23016.0000
2019-05-19T07:34:17.322Z,23176.0000
2019-05-19T07:35:20.319Z,22328.0000
2019-05-19T07:36:23.290Z,20928.0000
2019-05-19T07:37:26.295Z,19328.0000
2019-05-19T07:38:29.307Z,19440.0000
2019-05-19T07:39:32.325Z,20272.0000
2019-05-19T07:40:35.323Z,20896.0000
2019-05-19T07:41:38.329Z,20864.0000
2019-05-19T07:42:41.296Z,20848.0000
2019-05-19T07:43:44.287Z,20176.0000
2019-05-19T07:44:47.293Z,19552.0000
2019-05-19T07:45:50.355Z,18856.0000
2019-05-19T07:46:53.274Z,18480.0000
2019-05-19T07:47:56.330Z,18344.0000
2019-05-19T07:48:59.281Z,18440.0000
2019-05-19T07:50:01.327Z,19072.0000
2019-05-19T07:51:04.351Z,19936.0000
2019-05-19T07:52:07.280Z,20568.0000
2019-05-19T07:53:10.299Z,20736.0000
2019-05-19T07:54:13.296Z,19784.0000
2019-05-19T07:55:16.319Z,17656.0000
2019-05-19T07:56:19.305Z,15919.0000
2019-05-19T07:57:22.294Z,14553.0000
2019-05-19T07:58:26.345Z,13671.0000
2019-05-19T07:59:29.315Z,13064.0000
2019-05-19T08:00:32.350Z,12535.0000
2019-05-19T08:01:35.343Z,11787.0000
2019-05-19T08:02:38.366Z,10936.0000
2019-05-19T08:03:41.295Z,10183.0000
2019-05-19T08:04:44.294Z,9583.0000
2019-05-19T08:05:47.338Z,9535.0000
2019-05-19T08:06:50.351Z,9777.0000
2019-05-19T08:07:53.267Z,10108.0000
2019-05-19T08:08:56.308Z,10205.0000
2019-05-19T08:09:59.302Z,10334.0000
2019-05-19T08:11:03.340Z,10351.0000
2019-05-19T08:12:06.324Z,10246.0000
2019-05-19T08:13:09.320Z,10145.0000
2019-05-19T08:14:12.298Z,10117.0000
2019-05-19T08:15:15.306Z,10036.0000
2019-05-19T08:16:18.317Z,9890.0000
2019-05-19T08:17:21.324Z,9787.0000
2019-05-19T08:18:24.310Z,9604.0000
2019-05-19T08:19:26.309Z,9546.0000
2019-05-19T08:20:29.304Z,9878.0000
2019-05-19T08:21:32.386Z,10265.0000
2019-05-19T08:22:35.305Z,10671.0000
2019-05-19T08:23:38.290Z,11124.0000
2019-05-19T08:24:41.304Z,11314.0000
2019-05-19T08:25:44.286Z,11511.0000
2019-05-19T08:26:46.393Z,11883.0000
2019-05-19T08:27:49.313Z,12154.0000
2019-05-19T08:28:52.319Z,12669.0000
2019-05-19T08:29:55.314Z,14336.0000
2019-05-19T08:30:58.288Z,16238.0000
2019-05-19T08:32:01.320Z,17115.0000
2019-05-19T08:33:04.306Z,18336.0000
2019-05-19T08:34:07.501Z,19280.0000
2019-05-19T08:35:10.292Z,19840.0000
2019-05-19T08:36:13.305Z,20216.0000
2019-05-19T08:37:16.325Z,21312.0000
2019-05-19T08:38:19.334Z,22832.0000
2019-05-19T08:39:22.282Z,23736.0000
2019-05-19T08:40:25.312Z,23744.0000
2019-05-19T08:41:28.298Z,23752.0000
2019-05-19T08:42:31.363Z,24016.0000
2019-05-19T08:43:33.318Z,23840.0000
2019-05-19T08:44:36.309Z,22688.0000
2019-05-19T08:45:39.314Z,20816.0000
2019-05-19T08:46:42.318Z,19336.0000
2019-05-19T08:47:46.376Z,18400.0000
2019-05-19T08:48:49.343Z,18328.0000
2019-05-19T08:49:52.287Z,18152.0000
2019-05-19T08:50:55.296Z,17267.0000
2019-05-19T08:51:58.320Z,16393.0000
2019-05-19T08:53:01.347Z,16096.0000
2019-05-19T08:54:14.523Z,16682.0000
2019-05-19T08:55:14.367Z,18016.0000
2019-05-19T08:56:17.288Z,19432.0000
2019-05-19T08:57:20.321Z,20328.0000
2019-05-19T08:58:23.358Z,20904.0000
2019-05-19T08:59:26.288Z,21568.0000
2019-05-19T09:00:29.302Z,22688.0000
2019-05-19T09:01:32.333Z,24032.0000
2019-05-19T09:02:35.270Z,25616.0000
2019-05-19T09:03:38.329Z,26792.0000
2019-05-19T09:04:41.313Z,27584.0000
2019-05-19T09:05:44.304Z,28344.0000
2019-05-19T09:06:47.310Z,29616.0000
2019-05-19T09:07:50.323Z,30304.0000
2019-05-19T09:08:52.528Z,29856.0000
2019-05-19T09:09:55.291Z,29416.0000
2019-05-19T09:10:58.329Z,30032.0000
2019-05-19T09:12:01.268Z,30400.0000
2019-05-19T09:13:04.315Z,29696.0000
2019-05-19T09:14:07.358Z,29288.0000
2019-05-19T09:15:10.323Z,30520.0000
2019-05-19T09:16:13.291Z,37304.0000
2019-05-19T09:17:16.297Z,42368.0000
2019-05-19T09:18:19.376Z,52952.0000
2019-05-19T09:19:22.289Z,55344.0000
2019-05-19T09:20:25.317Z,54824.0000
2019-05-19T09:21:28.392Z,47504.0000
2019-05-19T09:22:31.289Z,65535.0000
2019-05-19T09:23:34.347Z,65456.0000
2019-05-19T09:24:37.486Z,65535.0000
2019-05-19T09:25:40.321Z,65535.0000
2019-05-19T09:26:43.312Z,65535.0000
2019-05-19T09:27:46.300Z,59424.0000
2019-05-19T09:28:49.313Z,65535.0000
2019-05-19T09:29:52.320Z,65535.0000
2019-05-19T09:30:55.289Z,63488.0000
2019-05-19T09:31:58.290Z,49024.0000
2019-05-19T09:33:01.356Z,49192.0000
2019-05-19T09:34:04.300Z,47712.0000
2019-05-19T09:35:07.327Z,65535.0000
2019-05-19T09:36:10.291Z,65535.0000
2019-05-19T09:37:13.275Z,65535.0000
2019-05-19T09:38:16.295Z,65535.0000
2019-05-19T09:39:19.376Z,55992.0000
2019-05-19T09:40:22.306Z,65535.0000
2019-05-19T09:41:25.339Z,37080.0000
2019-05-19T09:42:28.297Z,37936.0000
2019-05-19T09:43:31.299Z,35400.0000
2019-05-19T09:44:34.346Z,35728.0000
2019-05-19T09:45:37.358Z,37520.0000
2019-05-19T09:46:40.288Z,38464.0000
2019-05-19T09:47:43.341Z,41272.0000
2019-05-19T09:48:46.316Z,43848.0000
2019-05-19T09:49:49.339Z,61600.0000
2019-05-19T09:50:52.370Z,65535.0000
2019-05-19T09:51:55.318Z,65535.0000
2019-05-19T09:52:58.336Z,65535.0000
2019-05-19T09:54:01.325Z,65535.0000
2019-05-19T09:55:04.327Z,65535.0000
2019-05-19T09:56:07.346Z,42544.0000
2019-05-19T09:57:10.309Z,39848.0000
2019-05-19T09:58:18.730Z,38624.0000
2019-05-19T09:59:21.306Z,55176.0000
2019-05-19T10:00:24.321Z,51096.0000
2019-05-19T10:01:27.371Z,52160.0000
2019-05-19T10:02:30.400Z,47096.0000
2019-05-19T10:03:33.319Z,54400.0000
2019-05-19T10:04:36.294Z,65535.0000
2019-05-19T10:05:39.423Z,65535.0000
2019-05-19T10:06:41.420Z,65535.0000
2019-05-19T10:07:43.528Z,46984.0000
2019-05-19T10:08:46.290Z,40736.0000
2019-05-19T10:09:49.312Z,63520.0000
2019-05-19T10:10:52.411Z,20408.0000
2019-05-19T10:11:55.335Z,15842.0000
2019-05-19T10:12:57.373Z,13624.0000
2019-05-19T10:14:00.311Z,12123.0000
2019-05-19T10:15:03.499Z,10702.0000
2019-05-19T10:16:07.335Z,9583.0000
2019-05-19T10:17:10.411Z,8725.0000
2019-05-19T10:18:13.299Z,8569.0000
2019-05-19T10:19:16.330Z,8873.0000
2019-05-19T10:20:19.290Z,9482.0000
2019-05-19T10:21:22.357Z,9914.0000
2019-05-19T10:22:24.339Z,10192.0000
2019-05-19T10:23:27.323Z,10522.0000
2019-05-19T10:24:30.323Z,10883.0000
2019-05-19T10:25:33.334Z,11666.0000
2019-05-19T10:26:36.325Z,12409.0000
2019-05-19T10:27:39.342Z,13056.0000
2019-05-19T10:28:43.370Z,14250.0000
2019-05-19T10:29:46.315Z,16029.0000
2019-05-19T10:30:49.321Z,18504.0000
2019-05-19T10:31:54.381Z,20640.0000
2019-05-19T10:32:58.842Z,21816.0000
2019-05-19T10:34:02.325Z,23048.0000
2019-05-19T10:35:05.369Z,23816.0000
2019-05-19T10:36:08.317Z,24304.0000
2019-05-19T10:37:11.321Z,24848.0000
2019-05-19T10:38:14.310Z,25600.0000
2019-05-19T10:39:17.321Z,26632.0000
2019-05-19T10:40:20.308Z,27744.0000
2019-05-19T10:41:23.372Z,28968.0000
2019-05-19T10:42:26.312Z,30080.0000
2019-05-19T10:43:29.334Z,31112.0000
2019-05-19T10:44:32.383Z,32280.0000
2019-05-19T10:45:35.317Z,33352.0000
2019-05-19T10:46:37.376Z,34736.0000
2019-05-19T10:47:40.327Z,36264.0000
2019-05-19T10:48:43.341Z,39048.0000
2019-05-19T10:49:46.289Z,63736.0000
2019-05-19T10:50:49.314Z,63088.0000
2019-05-19T10:51:52.328Z,65535.0000
2019-05-19T10:52:55.326Z,65535.0000
2019-05-19T10:53:58.319Z,58104.0000
2019-05-19T10:55:01.319Z,64632.0000
2019-05-19T10:56:04.296Z,65408.0000
2019-05-19T10:57:07.304Z,65535.0000
2019-05-19T10:58:10.325Z,65535.0000
2019-05-19T10:59:13.313Z,65535.0000
2019-05-19T11:00:15.399Z,54520.0000
2019-05-19T11:01:18.334Z,57512.0000
2019-05-19T11:02:21.351Z,65535.0000
2019-05-19T11:03:24.350Z,65535.0000
2019-05-19T11:04:27.330Z,65535.0000
2019-05-19T11:05:30.346Z,65535.0000
2019-05-19T11:06:33.300Z,65535.0000
2019-05-19T11:07:36.388Z,65535.0000
2019-05-19T11:08:38.375Z,65535.0000
2019-05-19T11:09:41.337Z,65535.0000
2019-05-19T11:10:44.338Z,64064.0000
2019-05-19T11:11:47.349Z,36912.0000
2019-05-19T11:12:50.363Z,33872.0000
2019-05-19T11:13:53.314Z,33720.0000
2019-05-19T11:14:56.280Z,33968.0000
2019-05-19T11:15:59.323Z,32248.0000
2019-05-19T11:17:01.393Z,30128.0000
2019-05-19T11:18:06.438Z,29120.0000
2019-05-19T11:19:09.314Z,30056.0000
2019-05-19T11:20:12.312Z,29360.0000
2019-05-19T11:21:15.308Z,29216.0000
2019-05-19T11:22:18.328Z,30416.0000
2019-05-19T11:23:21.332Z,30960.0000
2019-05-19T11:24:24.302Z,31768.0000
2019-05-19T11:25:33.859Z,31304.0000
2019-05-19T11:26:35.285Z,31408.0000
2019-05-19T11:27:38.286Z,31672.0000
2019-05-19T11:28:41.362Z,33160.0000
2019-05-19T11:29:44.289Z,34800.0000
2019-05-19T11:30:47.297Z,37088.0000
2019-05-19T11:31:49.321Z,39856.0000
2019-05-19T11:32:54.400Z,43912.0000
2019-05-19T11:33:57.359Z,51752.0000
2019-05-19T11:35:00.315Z,65535.0000
2019-05-19T11:36:03.302Z,65535.0000
2019-05-19T11:37:07.387Z,65535.0000
2019-05-19T11:38:10.387Z,65535.0000
2019-05-19T11:39:13.318Z,65535.0000
2019-05-19T11:40:16.292Z,65535.0000
2019-05-19T11:41:18.319Z,65535.0000
2019-05-19T11:42:20.490Z,65535.0000
2019-05-19T11:43:23.362Z,65535.0000
2019-05-19T11:44:26.317Z,65535.0000
2019-05-19T11:45:29.369Z,65535.0000
2019-05-19T11:46:31.350Z,65535.0000
2019-05-19T11:47:34.310Z,60840.0000
2019-05-19T11:48:37.404Z,65535.0000
2019-05-19T11:49:40.325Z,63864.0000
2019-05-19T11:50:43.290Z,56312.0000
2019-05-19T11:51:46.320Z,50608.0000
2019-05-19T11:52:49.325Z,53904.0000
2019-05-19T11:53:52.350Z,49752.0000
2019-05-19T11:54:55.324Z,46456.0000
2019-05-19T11:56:06.399Z,47656.0000
2019-05-19T11:57:06.299Z,52240.0000
2019-05-19T11:58:09.379Z,50912.0000
2019-05-19T11:59:12.329Z,52184.0000
2019-05-19T12:00:15.301Z,54808.0000
2019-05-19T12:01:18.315Z,55784.0000
2019-05-19T12:02:21.305Z,57496.0000
2019-05-19T12:03:24.318Z,55168.0000
2019-05-19T12:04:27.320Z,53184.0000
2019-05-19T12:05:30.351Z,50960.0000
2019-05-19T12:06:39.580Z,49184.0000
2019-05-19T12:07:41.327Z,48032.0000
2019-05-19T12:08:44.296Z,48080.0000
2019-05-19T12:09:47.313Z,48056.0000